logo
Search for airport 
image banner adimage banner adimage banner ad
image banner ad

VOBM - Belagavi Airport

Located in Belagavi, India

ICAO - , IATA - IXG

Data provided by Airmate  

General information

Coordinates: N15°51'30" E74°37'4"
Elevation is 2488 feet MSL.
 
View others Airports in Karnataka

Operational data

Special qualification required
Current time UTC:
Current local time:
Weather
TAF: TAF VOBM 151700Z 1518/1603 09005KT 6000 SCT015 TEMPO 1600/1603 5000 BR SCT012
View NOTAMs / SUP AIP / TFR affecting this airport [VIEW]
Communications frequencies: [VIEW]

Runways:

RWY identifierQFULength (ft)Width (ft)SurfaceLDA (ft)
0879°7546148UNK
26259°7546148UNK

Airport contact information

Address: Belagavi India

Satellite view of VOBM